Time;durP1;ratioP1;P1;durP2;ratioP2;P2;SDS_P1;SDS_P2;PMS_P1;PMS_P2;Temp;Humidity;BMP_temperature;BMP_pressure;BME280_temperature;BME280_humidity;BME280_pressure;Samples;Min_cycle;Max_cycle;Signal;HPM_P1;HPM_P2
2022/07/15 00:00:28;;;;;;;1.90;1.10;;;21.60;99.90;;;;;;5016023;28;20053;-79
2022/07/15 00:02:54;;;;;;;5.45;1.30;;;21.50;99.90;;;;;;5017712;28;20113;-78
2022/07/15 00:05:20;;;;;;;2.92;1.40;;;21.40;99.90;;;;;;5017857;28;20061;-79
2022/07/15 00:07:46;;;;;;;2.17;1.25;;;21.30;99.90;;;;;;5018565;28;20037;-79
2022/07/15 00:10:15;;;;;;;1.75;1.08;;;21.20;99.90;;;;;;5020134;28;20033;-79
2022/07/15 00:13:00;;;;;;;2.92;1.35;;;21.10;99.90;;;;;;5023113;28;20014;-77
2022/07/15 00:15:30;;;;;;;1.88;1.45;;;21.10;99.90;;;;;;5017879;28;20037;-78
2022/07/15 00:18:01;;;;;;;3.90;1.38;;;21.10;99.90;;;;;;5035047;28;20436;-78
2022/07/15 00:20:33;;;;;;;2.78;1.30;;;21.00;99.90;;;;;;5017314;28;20029;-77
2022/07/15 00:23:03;;;;;;;2.72;1.40;;;20.90;99.90;;;;;;5014053;28;20014;-77
2022/07/15 00:25:29;;;;;;;2.00;1.02;;;20.90;99.90;;;;;;5035168;28;20080;-77
2022/07/15 00:28:01;;;;;;;1.63;1.38;;;20.90;99.90;;;;;;5034401;28;20042;-79
2022/07/15 00:30:35;;;;;;;1.90;1.17;;;20.90;99.90;;;;;;5015765;28;20026;-77
2022/07/15 00:33:01;;;;;;;4.72;1.50;;;21.00;99.90;;;;;;5025851;28;20029;-78
2022/07/15 00:35:29;;;;;;;2.60;1.80;;;21.00;99.90;;;;;;5024164;28;20030;-77
2022/07/15 00:37:54;;;;;;;3.00;1.50;;;21.10;99.90;;;;;;5006771;28;20114;-78
2022/07/15 00:40:20;;;;;;;1.77;1.30;;;21.00;99.90;;;;;;5020441;28;20083;-79
2022/07/15 00:42:46;;;;;;;3.13;1.60;;;21.00;99.90;;;;;;5003228;28;20141;-77
2022/07/15 00:45:18;;;;;;;3.45;1.40;;;21.00;99.90;;;;;;5004489;28;20025;-77
2022/07/15 00:47:47;;;;;;;3.00;1.60;;;21.00;99.90;;;;;;5024776;28;20133;-78
2022/07/15 00:50:14;;;;;;;3.10;1.60;;;20.90;99.90;;;;;;5027234;28;20052;-77
2022/07/15 00:52:44;;;;;;;4.50;1.90;;;20.90;99.90;;;;;;5004998;28;20116;-78
2022/07/15 00:55:12;;;;;;;6.38;1.90;;;20.80;99.90;;;;;;5005310;28;20030;-77
2022/07/15 00:57:41;;;;;;;6.03;2.22;;;20.60;99.90;;;;;;5007039;28;20022;-77
2022/07/15 01:00:10;;;;;;;5.65;1.65;;;20.50;99.90;;;;;;5025425;28;20022;-77
2022/07/15 01:02:37;;;;;;;4.30;1.80;;;20.70;99.90;;;;;;5005622;28;20124;-77
2022/07/15 01:05:05;;;;;;;3.95;2.17;;;20.60;99.90;;;;;;5005128;28;20057;-77
2022/07/15 01:07:34;;;;;;;2.08;1.67;;;20.50;99.90;;;;;;5006619;28;20029;-77
2022/07/15 01:10:00;;;;;;;3.22;1.80;;;20.40;99.90;;;;;;5023251;28;20111;-79
2022/07/15 01:12:26;;;;;;;5.55;1.90;;;20.50;99.90;;;;;;5005223;28;20068;-77
2022/07/15 01:14:53;;;;;;;4.18;2.15;;;20.60;99.90;;;;;;5003144;28;20030;-78
2022/07/15 01:17:19;;;;;;;2.60;2.00;;;20.50;99.90;;;;;;4985999;28;20069;-79
2022/07/15 01:19:45;;;;;;;5.07;2.25;;;20.50;99.90;;;;;;5000764;28;20026;-78
2022/07/15 01:22:11;;;;;;;4.65;2.17;;;20.30;99.90;;;;;;5002862;28;20474;-77
2022/07/15 01:24:38;;;;;;;2.97;2.10;;;20.20;99.90;;;;;;5027537;28;20111;-76
2022/07/15 01:27:17;;;;;;;5.25;2.58;;;20.20;99.90;;;;;;5028002;28;20006;-78
2022/07/15 01:29:44;;;;;;;3.20;2.53;;;20.00;99.90;;;;;;5007174;28;20057;-77
2022/07/15 01:32:10;;;;;;;3.45;2.17;;;19.80;99.90;;;;;;5007391;28;20025;-77
2022/07/15 01:34:36;;;;;;;6.03;2.53;;;19.70;99.90;;;;;;5020408;28;20026;-79
2022/07/15 01:37:02;;;;;;;2.80;2.40;;;19.70;99.90;;;;;;5019614;28;20119;-78
2022/07/15 01:39:29;;;;;;;5.95;2.65;;;19.70;99.90;;;;;;5000453;28;20037;-76
2022/07/15 01:41:57;;;;;;;5.75;2.60;;;19.70;99.90;;;;;;5006456;28;20061;-77
2022/07/15 01:44:23;;;;;;;6.95;2.65;;;19.70;99.90;;;;;;5026152;28;20029;-77
2022/07/15 01:46:49;;;;;;;4.78;2.78;;;19.50;99.90;;;;;;4992080;28;20029;-77
2022/07/15 01:49:26;;;;;;;6.38;2.80;;;19.40;99.90;;;;;;5008352;28;20026;-78
2022/07/15 01:52:13;;;;;;;5.22;2.80;;;19.40;99.90;;;;;;5022635;28;20090;-78
2022/07/15 01:54:44;;;;;;;4.93;3.17;;;19.30;99.90;;;;;;5032276;28;20033;-77
2022/07/15 01:57:10;;;;;;;3.85;2.92;;;19.20;99.90;;;;;;5028814;28;20026;-78
2022/07/15 01:59:47;;;;;;;5.90;3.00;;;19.10;99.90;;;;;;5027291;28;20045;-77
2022/07/15 02:02:18;;;;;;;4.28;2.75;;;19.10;99.90;;;;;;4989014;28;20088;-78
2022/07/15 02:04:45;;;;;;;4.85;3.20;;;19.00;99.90;;;;;;5021259;28;20030;-78
2022/07/15 02:07:11;;;;;;;4.05;3.05;;;19.00;99.90;;;;;;5021863;28;20090;-77
2022/07/15 02:09:36;;;;;;;5.90;2.83;;;19.00;99.90;;;;;;5026832;28;20083;-78
2022/07/15 02:12:02;;;;;;;7.30;3.88;;;19.00;99.90;;;;;;5006929;28;20025;-78
2022/07/15 02:14:35;;;;;;;4.35;3.20;;;19.10;99.90;;;;;;5010843;28;20030;-78
2022/07/15 02:17:03;;;;;;;4.50;3.65;;;19.20;99.90;;;;;;5030064;28;20581;-79
2022/07/15 02:19:33;;;;;;;8.82;3.33;;;19.00;99.90;;;;;;5008759;28;20037;-78
2022/07/15 02:21:59;;;;;;;6.30;3.97;;;19.00;99.90;;;;;;5021669;28;20073;-78
2022/07/15 02:24:28;;;;;;;5.60;4.00;;;18.90;99.90;;;;;;5003853;28;20113;-78
2022/07/15 02:26:53;;;;;;;6.65;3.90;;;18.80;99.90;;;;;;5020224;28;20057;-77
2022/07/15 02:29:19;;;;;;;7.13;4.60;;;18.80;99.90;;;;;;5023900;28;20033;-78
2022/07/15 02:31:45;;;;;;;8.10;4.43;;;18.80;99.90;;;;;;5018622;28;20026;-78
2022/07/15 02:34:11;;;;;;;10.57;4.57;;;18.70;99.90;;;;;;5011914;28;20128;-77
2022/07/15 02:36:39;;;;;;;6.20;4.50;;;18.50;99.90;;;;;;5018627;22;20110;-80
2022/07/15 02:39:05;;;;;;;5.03;4.38;;;18.40;99.90;;;;;;4982482;28;20038;-80
2022/07/15 02:41:33;;;;;;;9.73;4.95;;;18.30;99.90;;;;;;4981461;28;20034;-82
2022/07/15 02:44:05;;;;;;;9.05;5.05;;;18.30;99.90;;;;;;4994605;28;20050;-79
2022/07/15 02:46:34;;;;;;;8.77;5.05;;;18.30;99.90;;;;;;5008234;28;20034;-81
2022/07/15 02:49:00;;;;;;;6.82;4.57;;;18.30;99.90;;;;;;4995866;28;20026;-80
2022/07/15 02:51:26;;;;;;;9.43;4.03;;;18.40;99.90;;;;;;4983874;28;20096;-79
2022/07/15 02:53:52;;;;;;;9.85;4.93;;;18.40;99.90;;;;;;5015632;28;20446;-79
2022/07/15 02:56:21;;;;;;;7.72;5.32;;;18.40;99.90;;;;;;5015040;28;20034;-80
2022/07/15 02:58:47;;;;;;;7.38;3.97;;;18.50;99.90;;;;;;5016213;28;20041;-82
2022/07/15 03:01:14;;;;;;;8.13;4.30;;;18.60;99.90;;;;;;4998669;28;20046;-81
2022/07/15 03:03:40;;;;;;;11.32;4.63;;;18.60;99.90;;;;;;4982929;28;20049;-80
2022/07/15 03:06:09;;;;;;;8.52;4.90;;;18.60;99.90;;;;;;5014551;28;20056;-80
2022/07/15 03:08:36;;;;;;;14.73;5.32;;;18.50;99.90;;;;;;4998897;28;20026;-79
2022/07/15 03:11:01;;;;;;;7.70;5.50;;;18.50;99.90;;;;;;5015677;28;20042;-81
2022/07/15 03:13:29;;;;;;;7.93;5.00;;;18.40;99.90;;;;;;4999194;28;20038;-81
2022/07/15 03:15:56;;;;;;;9.85;5.35;;;18.40;99.90;;;;;;4994945;28;20037;-82
2022/07/15 03:18:23;;;;;;;8.50;5.00;;;18.40;99.90;;;;;;4990911;28;20050;-84
2022/07/15 03:20:49;;;;;;;10.18;5.55;;;18.40;99.90;;;;;;4989986;28;20026;-85
2022/07/15 03:23:15;;;;;;;16.85;6.00;;;18.40;99.90;;;;;;5007829;28;20034;-82
2022/07/15 03:25:42;;;;;;;11.40;6.53;;;18.40;99.90;;;;;;4975377;28;20119;-81
2022/07/15 03:28:11;;;;;;;8.60;5.43;;;18.40;99.90;;;;;;5008040;28;20538;-83
2022/07/15 03:30:39;;;;;;;10.32;6.10;;;18.50;99.90;;;;;;5006217;28;20509;-81
2022/07/15 03:33:04;;;;;;;7.90;6.13;;;18.50;99.90;;;;;;5006648;28;20061;-80
2022/07/15 03:35:30;;;;;;;7.13;5.97;;;18.50;99.90;;;;;;4991108;28;20046;-83
2022/07/15 03:37:56;;;;;;;11.88;6.53;;;18.60;99.90;;;;;;5009239;28;20146;-79
2022/07/15 03:40:22;;;;;;;10.30;6.00;;;18.60;99.90;;;;;;5013991;28;20042;-80
2022/07/15 03:42:48;;;;;;;12.95;6.25;;;18.60;99.90;;;;;;5013021;28;20038;-80
2022/07/15 03:45:14;;;;;;;8.88;5.88;;;18.70;99.90;;;;;;5008900;28;20034;-82
2022/07/15 03:47:40;;;;;;;7.95;6.40;;;18.60;99.90;;;;;;4990999;28;20121;-80
2022/07/15 03:50:11;;;;;;;8.00;5.70;;;18.60;99.90;;;;;;4990075;28;20029;-81
2022/07/15 03:52:38;;;;;;;7.10;6.00;;;18.60;99.90;;;;;;4991638;28;20106;-81
2022/07/15 03:55:06;;;;;;;9.60;6.35;;;18.70;99.90;;;;;;4994025;28;20034;-81
2022/07/15 03:57:32;;;;;;;10.27;6.07;;;18.70;99.90;;;;;;4995443;28;20098;-81
2022/07/15 03:59:58;;;;;;;11.18;5.70;;;18.70;99.90;;;;;;5014268;28;20445;-81
2022/07/15 04:02:23;;;;;;;12.13;6.82;;;18.70;99.90;;;;;;5014398;28;20156;-82
2022/07/15 04:04:49;;;;;;;8.05;6.35;;;18.70;99.90;;;;;;5014664;28;20026;-80
2022/07/15 04:07:17;;;;;;;10.88;6.32;;;18.70;99.90;;;;;;4982261;28;20112;-80
2022/07/15 04:09:42;;;;;;;7.72;6.10;;;18.70;99.90;;;;;;5001265;28;20018;-82
2022/07/15 04:12:08;;;;;;;8.88;6.45;;;18.70;99.90;;;;;;5007629;28;20062;-84
2022/07/15 04:14:38;;;;;;;11.20;6.20;;;18.70;99.90;;;;;;4999139;28;20138;-82
2022/07/15 04:17:05;;;;;;;10.50;5.95;;;18.60;99.90;;;;;;5016088;28;20086;-82
2022/07/15 04:19:34;;;;;;;9.90;6.05;;;18.60;99.90;;;;;;4999596;28;20034;-85
2022/07/15 04:22:03;;;;;;;11.30;6.13;;;18.60;99.90;;;;;;4996489;28;20026;-84
2022/07/15 04:24:38;;;;;;;9.52;6.75;;;18.70;99.90;;;;;;5008997;28;20082;-82
2022/07/15 04:27:07;;;;;;;8.32;5.88;;;18.80;99.90;;;;;;4977739;28;20046;-81
2022/07/15 04:29:35;;;;;;;11.73;6.30;;;18.90;99.90;;;;;;5017829;28;20022;-81
2022/07/15 04:32:03;;;;;;;10.18;6.10;;;18.90;99.90;;;;;;5001009;28;20094;-82
2022/07/15 04:34:34;;;;;;;12.30;5.97;;;19.00;99.90;;;;;;5004527;28;20074;-82
2022/07/15 04:37:00;;;;;;;14.77;6.70;;;19.00;99.90;;;;;;5020523;28;20034;-80
2022/07/15 04:39:28;;;;;;;11.25;5.75;;;19.00;99.90;;;;;;5013602;28;20043;-82
2022/07/15 04:41:54;;;;;;;10.30;6.55;;;19.00;99.90;;;;;;5023610;28;20026;-83
2022/07/15 04:44:20;;;;;;;12.13;6.10;;;19.10;99.90;;;;;;5023616;28;20022;-82
2022/07/15 04:46:46;;;;;;;13.35;6.13;;;19.00;99.90;;;;;;5041304;22;20105;-84
2022/07/15 04:52:12;;;;;;;15.93;5.95;;;19.20;99.90;;;;;;5004044;28;20047;-83
2022/07/15 04:54:42;;;;;;;13.95;5.95;;;19.20;99.90;;;;;;5002582;28;20193;-83
2022/07/15 04:57:09;;;;;;;11.00;6.45;;;19.20;99.90;;;;;;5019677;28;20026;-83
2022/07/15 04:59:35;;;;;;;9.10;5.85;;;19.10;99.90;;;;;;5012684;28;20027;-84
2022/07/15 05:02:02;;;;;;;9.48;5.93;;;19.10;99.90;;;;;;5010072;28;20038;-83
2022/07/15 05:04:36;;;;;;;10.48;5.90;;;19.20;99.90;;;;;;4993346;28;20093;-85
2022/07/15 05:07:02;;;;;;;9.52;5.78;;;19.20;99.90;;;;;;5009502;28;20040;-81
2022/07/15 05:09:31;;;;;;;9.43;5.43;;;19.40;99.90;;;;;;4992493;28;20026;-82
2022/07/15 05:11:57;;;;;;;9.60;5.25;;;19.50;99.90;;;;;;5015574;28;20041;-82
2022/07/15 05:14:24;;;;;;;11.68;5.43;;;19.60;99.90;;;;;;5017872;28;20026;-81
2022/07/15 05:16:50;;;;;;;10.38;5.30;;;19.80;99.90;;;;;;5001905;28;20106;-82
2022/07/15 05:19:16;;;;;;;12.25;6.03;;;19.80;99.90;;;;;;5019398;28;20057;-82
2022/07/15 05:21:42;;;;;;;12.05;5.68;;;19.90;99.90;;;;;;5002513;28;20010;-83
2022/07/15 05:24:08;;;;;;;10.20;5.35;;;19.90;99.90;;;;;;5018511;28;20026;-83
2022/07/15 05:26:36;;;;;;;13.32;5.40;;;19.80;99.90;;;;;;5019976;28;20062;-83
2022/07/15 05:29:04;;;;;;;12.52;5.95;;;19.90;99.90;;;;;;5002621;28;20049;-82
2022/07/15 05:31:30;;;;;;;9.45;5.28;;;19.90;99.90;;;;;;4987404;28;20082;-85
2022/07/15 05:33:58;;;;;;;14.50;5.13;;;19.80;99.90;;;;;;5003668;28;20022;-83
2022/07/15 05:36:24;;;;;;;9.45;4.85;;;19.80;99.90;;;;;;5003261;28;20050;-85
2022/07/15 05:38:52;;;;;;;7.80;4.47;;;19.90;99.90;;;;;;5002488;28;20102;-85
2022/07/15 05:41:19;;;;;;;6.45;4.47;;;20.30;99.90;;;;;;4987199;28;20027;-86
2022/07/15 05:43:45;;;;;;;15.38;5.03;;;20.50;99.90;;;;;;4986762;28;20034;-85
2022/07/15 05:46:12;;;;;;;7.95;4.32;;;20.70;99.90;;;;;;5003646;28;20026;-84
2022/07/15 05:48:48;;;;;;;12.00;4.30;;;20.60;99.90;;;;;;5003966;28;20037;-84
2022/07/15 05:51:14;;;;;;;10.13;4.65;;;20.40;99.90;;;;;;4987006;28;20046;-84
2022/07/15 05:53:41;;;;;;;6.53;3.75;;;20.50;99.90;;;;;;5002033;28;20137;-86
2022/07/15 05:56:08;;;;;;;8.70;4.13;;;20.30;99.90;;;;;;5000367;28;20101;-86
2022/07/15 05:58:34;;;;;;;14.70;4.25;;;20.30;99.90;;;;;;5000594;28;20030;-85
2022/07/15 06:01:01;;;;;;;7.63;3.83;;;20.30;99.90;;;;;;5001174;28;20038;-84
2022/07/15 06:03:33;;;;;;;9.02;3.92;;;20.50;99.90;;;;;;5019131;28;20082;-86
2022/07/15 06:05:59;;;;;;;11.77;3.85;;;20.70;99.90;;;;;;5018280;28;20026;-85
2022/07/15 06:08:25;;;;;;;11.43;3.55;;;20.90;99.90;;;;;;5015685;28;20610;-86
2022/07/15 06:10:51;;;;;;;8.68;3.22;;;20.80;99.90;;;;;;5000765;28;20042;-86
2022/07/15 06:13:20;;;;;;;9.00;3.47;;;20.70;99.90;;;;;;5002313;28;20041;-84
2022/07/15 06:15:47;;;;;;;6.57;3.25;;;20.70;99.90;;;;;;5018494;28;20026;-83
2022/07/15 06:18:19;;;;;;;14.13;3.30;;;20.70;99.90;;;;;;5018562;28;20006;-83
2022/07/15 06:20:45;;;;;;;13.85;3.38;;;20.80;99.90;;;;;;5002871;28;20045;-83
2022/07/15 06:23:11;;;;;;;8.85;3.30;;;20.90;99.90;;;;;;5078059;22;20025;-84
2022/07/15 06:25:37;;;;;;;8.52;3.15;;;21.00;99.90;;;;;;5022454;28;20029;-85
2022/07/15 06:28:03;;;;;;;5.70;2.78;;;21.10;99.90;;;;;;5037443;28;20046;-84
2022/07/15 06:30:30;;;;;;;7.38;3.00;;;21.00;99.90;;;;;;5022068;28;20018;-86
2022/07/15 06:32:58;;;;;;;7.05;2.65;;;21.00;99.90;;;;;;5039415;28;20013;-85
2022/07/15 06:35:26;;;;;;;5.78;2.50;;;21.10;99.90;;;;;;5038541;28;20102;-85
2022/07/15 06:37:52;;;;;;;6.45;2.72;;;21.10;99.90;;;;;;5039131;28;20056;-85
2022/07/15 06:40:18;;;;;;;9.00;3.03;;;21.00;99.90;;;;;;5039329;28;20026;-86
2022/07/15 06:42:44;;;;;;;8.13;2.53;;;21.00;99.90;;;;;;5038888;28;20010;-85
2022/07/15 06:45:14;;;;;;;6.65;2.75;;;21.10;99.90;;;;;;5038519;28;20022;-85
2022/07/15 06:47:41;;;;;;;7.03;2.40;;;21.30;99.90;;;;;;5038275;28;20036;-85
2022/07/15 06:50:08;;;;;;;5.32;2.75;;;21.40;99.90;;;;;;5021711;28;20028;-87
2022/07/15 06:52:34;;;;;;;5.60;2.30;;;21.50;99.90;;;;;;5037620;28;20038;-86
2022/07/15 06:55:00;;;;;;;6.03;2.10;;;21.60;99.90;;;;;;5035905;28;20033;-86
2022/07/15 06:57:30;;;;;;;6.40;2.30;;;21.70;99.90;;;;;;5035732;28;20196;-84
2022/07/15 06:59:56;;;;;;;4.88;1.77;;;21.50;99.90;;;;;;5036497;28;20348;-85
2022/07/15 07:02:23;;;;;;;10.65;2.28;;;21.50;99.20;;;;;;5020196;28;20025;-84
2022/07/15 07:04:49;;;;;;;7.47;2.15;;;21.40;99.90;;;;;;5036887;28;20033;-86
2022/07/15 07:07:15;;;;;;;4.50;2.00;;;21.50;99.60;;;;;;5034028;28;20492;-84
2022/07/15 07:09:41;;;;;;;10.50;2.20;;;21.60;99.80;;;;;;5036302;28;20037;-85
2022/07/15 07:12:08;;;;;;;6.35;2.20;;;21.70;98.90;;;;;;5018904;28;20034;-84
2022/07/15 07:14:34;;;;;;;5.93;2.00;;;21.60;98.90;;;;;;5038498;28;20021;-87
2022/07/15 07:17:00;;;;;;;3.35;1.80;;;21.80;99.50;;;;;;5034200;28;20038;-88
2022/07/15 07:19:25;;;;;;;2.83;1.73;;;21.80;98.30;;;;;;5029090;28;20049;-85
2022/07/15 07:21:51;;;;;;;5.15;1.80;;;21.90;98.10;;;;;;5028728;28;20034;-85
2022/07/15 07:24:20;;;;;;;4.63;2.05;;;21.70;98.30;;;;;;5032824;28;20093;-85
2022/07/15 07:26:48;;;;;;;8.15;2.40;;;21.70;98.20;;;;;;5034561;28;20052;-86
2022/07/15 07:29:22;;;;;;;7.43;2.20;;;21.50;98.20;;;;;;5034526;28;20109;-87
2022/07/15 07:31:49;;;;;;;5.15;2.13;;;21.30;98.30;;;;;;5031936;28;20034;-87
2022/07/15 07:34:15;;;;;;;4.88;2.00;;;21.20;98.60;;;;;;5026397;28;20030;-86
2022/07/15 07:36:41;;;;;;;4.10;1.77;;;21.30;98.80;;;;;;5009202;28;20213;-86
2022/07/15 07:39:07;;;;;;;6.05;2.20;;;21.30;98.90;;;;;;5007535;28;20045;-85
2022/07/15 07:41:33;;;;;;;7.60;2.28;;;21.50;98.70;;;;;;5008598;28;20049;-87
2022/07/15 07:43:59;;;;;;;5.80;2.15;;;21.50;98.80;;;;;;5006669;28;20026;-86
2022/07/15 07:46:25;;;;;;;6.40;2.13;;;21.70;98.50;;;;;;5013647;28;20038;-85
2022/07/15 07:48:51;;;;;;;6.63;2.15;;;21.80;98.70;;;;;;5047793;28;20033;-85
2022/07/15 07:51:17;;;;;;;12.50;1.90;;;21.90;98.40;;;;;;5032549;28;20359;-87
2022/07/15 07:53:43;;;;;;;4.38;1.80;;;21.90;96.90;;;;;;5035431;28;20034;-85
2022/07/15 07:56:09;;;;;;;7.13;1.63;;;21.90;96.80;;;;;;5037737;28;20061;-84
2022/07/15 07:58:35;;;;;;;8.05;1.60;;;21.90;97.20;;;;;;5038031;28;20014;-84
2022/07/15 08:01:01;;;;;;;7.43;1.65;;;21.90;96.30;;;;;;5037994;28;20034;-85
2022/07/15 08:03:29;;;;;;;9.10;1.50;;;21.80;96.00;;;;;;5037653;28;20014;-84
2022/07/15 08:05:55;;;;;;;7.88;2.05;;;21.90;95.40;;;;;;5036924;28;20025;-86
2022/07/15 08:08:25;;;;;;;2.65;1.20;;;21.80;94.70;;;;;;5036338;28;20034;-85
2022/07/15 08:10:55;;;;;;;5.25;1.52;;;21.80;95.40;;;;;;5039734;28;20027;-86
2022/07/15 08:13:23;;;;;;;5.03;1.38;;;21.90;95.70;;;;;;5039066;28;20103;-86
2022/07/15 08:15:50;;;;;;;7.07;1.67;;;22.00;95.90;;;;;;5040960;28;20082;-87
2022/07/15 08:18:16;;;;;;;5.10;1.60;;;22.10;95.20;;;;;;5018028;28;20026;-87
2022/07/15 08:20:42;;;;;;;5.05;1.60;;;22.10;95.20;;;;;;5021450;28;20035;-86
2022/07/15 08:23:08;;;;;;;7.88;2.13;;;22.20;95.90;;;;;;5021459;28;20026;-86
2022/07/15 08:25:38;;;;;;;7.25;2.00;;;22.30;95.20;;;;;;5025966;28;20048;-86
2022/07/15 08:28:06;;;;;;;4.07;1.38;;;22.30;94.40;;;;;;5022334;28;20664;-87
2022/07/15 08:30:33;;;;;;;7.43;1.67;;;22.20;94.20;;;;;;5026278;28;20002;-85
2022/07/15 08:32:59;;;;;;;3.85;1.60;;;22.20;94.10;;;;;;5047394;28;20045;-85
2022/07/15 08:35:26;;;;;;;4.85;1.52;;;22.20;93.30;;;;;;5032469;28;20033;-85
2022/07/15 08:37:52;;;;;;;4.18;1.40;;;22.20;93.70;;;;;;5026520;28;20030;-85
2022/07/15 08:40:18;;;;;;;6.22;1.60;;;22.30;93.70;;;;;;5021728;28;20093;-85
2022/07/15 08:42:47;;;;;;;8.45;1.98;;;22.40;93.40;;;;;;5024704;28;20027;-86
2022/07/15 08:45:14;;;;;;;9.23;1.73;;;22.50;94.00;;;;;;5023658;28;20023;-84
2022/07/15 08:47:42;;;;;;;5.43;1.58;;;22.50;93.00;;;;;;5043630;28;20038;-84
2022/07/15 08:50:14;;;;;;;4.18;1.48;;;22.50;93.80;;;;;;5022766;28;20013;-83
2022/07/15 08:52:42;;;;;;;5.88;1.88;;;22.60;92.50;;;;;;5022136;28;20038;-86
2022/07/15 08:55:08;;;;;;;6.80;1.80;;;22.70;91.80;;;;;;5028963;28;20038;-85
2022/07/15 08:57:34;;;;;;;7.30;1.73;;;22.80;92.40;;;;;;5027361;28;20116;-85
2022/07/15 09:00:01;;;;;;;5.50;1.80;;;22.80;92.00;;;;;;5019012;28;20031;-85
2022/07/15 09:02:27;;;;;;;3.42;1.45;;;22.80;91.70;;;;;;5019063;28;20030;-86
2022/07/15 09:05:23;;;;;;;3.47;1.30;;;22.90;92.00;;;;;;5023993;28;20030;-87
2022/07/15 09:07:59;;;;;;;6.43;1.88;;;22.90;91.40;;;;;;5022458;28;20086;-86
2022/07/15 09:10:47;;;;;;;4.68;1.67;;;22.90;91.80;;;;;;5033970;22;20039;-78
2022/07/15 09:13:28;;;;;;;4.60;1.60;;;22.90;92.00;;;;;;5021835;28;20536;-78
2022/07/15 09:15:55;;;;;;;3.17;1.60;;;23.00;91.60;;;;;;5021826;28;20022;-80
2022/07/15 09:18:30;;;;;;;5.25;1.55;;;23.00;92.30;;;;;;5019574;28;20086;-79
2022/07/15 09:20:57;;;;;;;7.22;1.80;;;23.00;91.40;;;;;;5015298;28;20035;-77
2022/07/15 09:23:31;;;;;;;3.10;1.30;;;22.90;91.80;;;;;;5006066;28;20088;-78
2022/07/15 09:26:00;;;;;;;6.30;1.42;;;22.80;92.00;;;;;;5010005;28;20038;-78
2022/07/15 09:28:39;;;;;;;3.50;1.50;;;23.00;92.10;;;;;;5008880;28;20034;-78
2022/07/15 09:33:58;;;;;;;5.25;2.45;;;23.00;90.80;;;;;;5013838;28;20040;-79
2022/07/15 09:36:26;;;;;;;2.47;1.52;;;23.00;91.00;;;;;;5018553;28;20019;-78
2022/07/15 09:38:53;;;;;;;9.48;1.50;;;23.20;91.00;;;;;;5020060;28;20021;-79
2022/07/15 09:41:25;;;;;;;7.07;1.65;;;23.30;90.60;;;;;;5020969;28;20082;-77
2022/07/15 09:44:11;;;;;;;4.22;1.45;;;23.30;90.20;;;;;;5020191;28;20018;-79
2022/07/15 09:46:45;;;;;;;7.30;1.90;;;23.40;90.00;;;;;;5020403;28;20042;-79
2022/07/15 09:49:13;;;;;;;4.13;1.30;;;23.70;88.90;;;;;;5019793;28;20034;-78
2022/07/15 09:51:55;;;;;;;6.93;1.70;;;24.00;89.00;;;;;;5012833;28;20026;-78
2022/07/15 09:54:26;;;;;;;4.68;1.90;;;24.50;86.80;;;;;;5017302;28;20060;-78
2022/07/15 09:56:52;;;;;;;2.45;1.40;;;25.20;85.50;;;;;;5019113;28;20085;-79
2022/07/15 09:59:19;;;;;;;4.65;1.67;;;25.70;84.10;;;;;;5019380;28;20023;-79
2022/07/15 10:01:47;;;;;;;4.95;1.67;;;25.80;82.60;;;;;;5018186;28;20042;-77
2022/07/15 10:04:16;;;;;;;6.57;1.70;;;26.00;81.70;;;;;;5019829;28;20059;-83
2022/07/15 10:06:43;;;;;;;8.88;1.88;;;27.00;80.70;;;;;;5019246;28;20026;-83
2022/07/15 10:09:09;;;;;;;2.65;1.45;;;27.90;78.70;;;;;;5019027;28;20034;-80
2022/07/15 10:11:46;;;;;;;5.85;1.58;;;28.90;76.70;;;;;;5018115;28;20041;-80
2022/07/15 10:14:46;;;;;;;4.75;1.65;;;29.80;73.00;;;;;;5018624;28;20014;-81
2022/07/15 10:17:15;;;;;;;3.97;1.42;;;30.30;71.00;;;;;;5015683;28;20022;-82
2022/07/15 10:20:18;;;;;;;2.28;1.23;;;31.10;69.80;;;;;;5005716;28;20117;-83
2022/07/15 10:23:20;;;;;;;2.97;1.40;;;31.90;67.30;;;;;;5003084;28;20053;-82
2022/07/15 10:25:49;;;;;;;7.47;1.95;;;32.00;64.70;;;;;;5004195;28;20030;-82
2022/07/15 10:28:32;;;;;;;6.93;2.13;;;31.90;64.60;;;;;;5004318;28;20030;-81
2022/07/15 10:31:17;;;;;;;8.60;3.40;;;32.70;63.60;;;;;;5002678;28;20037;-81
2022/07/15 10:34:03;;;;;;;4.63;2.00;;;33.20;61.90;;;;;;5003485;28;20030;-82
2022/07/15 10:36:47;;;;;;;5.85;1.63;;;34.00;60.40;;;;;;5008366;28;20034;-82
2022/07/15 10:39:18;;;;;;;7.28;1.95;;;34.80;58.80;;;;;;5018593;28;20098;-81
2022/07/15 10:41:57;;;;;;;5.40;1.60;;;34.70;58.50;;;;;;5018039;28;20090;-80
2022/07/15 10:44:34;;;;;;;4.38;1.67;;;34.20;57.40;;;;;;5019066;28;20034;-80
2022/07/15 10:47:26;;;;;;;3.80;1.70;;;33.80;57.80;;;;;;5018888;28;20042;-81
2022/07/15 10:49:53;;;;;;;4.57;1.30;;;33.00;57.90;;;;;;5015669;28;20058;-80
2022/07/15 10:52:28;;;;;;;6.70;1.70;;;33.10;58.20;;;;;;5014745;28;20044;-81
2022/07/15 10:54:59;;;;;;;4.50;1.95;;;34.50;57.40;;;;;;5018866;28;20018;-81
2022/07/15 10:57:41;;;;;;;5.72;3.35;;;35.70;55.80;;;;;;5017822;28;20030;-81
2022/07/15 11:00:36;;;;;;;3.25;1.50;;;34.90;55.90;;;;;;5018169;28;20053;-81
2022/07/15 11:03:14;;;;;;;3.55;1.42;;;34.50;55.80;;;;;;5018494;28;20026;-80
2022/07/15 11:05:52;;;;;;;3.03;1.90;;;34.90;55.60;;;;;;5018833;28;20046;-80
2022/07/15 11:08:33;;;;;;;7.32;1.75;;;34.90;54.60;;;;;;5017775;28;20037;-81
2022/07/15 11:11:14;;;;;;;6.35;1.50;;;34.90;54.70;;;;;;5018504;28;20030;-81
2022/07/15 11:13:47;;;;;;;6.00;1.90;;;35.20;54.70;;;;;;5018658;28;20018;-82
2022/07/15 11:16:17;;;;;;;5.70;2.10;;;36.00;54.20;;;;;;5018018;28;20041;-80
2022/07/15 11:18:48;;;;;;;3.88;1.60;;;35.70;53.60;;;;;;5018471;28;20022;-81
2022/07/15 11:21:14;;;;;;;4.75;1.42;;;35.70;52.90;;;;;;5017980;28;20034;-81
2022/07/15 11:23:43;;;;;;;3.33;1.63;;;34.60;53.00;;;;;;5017505;28;20018;-81
2022/07/15 11:26:09;;;;;;;3.20;1.55;;;34.00;54.20;;;;;;5017413;28;20022;-80
2022/07/15 11:28:36;;;;;;;4.80;1.50;;;33.50;54.10;;;;;;5017830;28;20061;-80
2022/07/15 11:31:02;;;;;;;10.20;1.95;;;33.80;54.00;;;;;;5017955;28;20014;-82
2022/07/15 11:33:30;;;;;;;4.05;2.42;;;34.40;53.80;;;;;;5018022;28;20042;-81
2022/07/15 11:36:01;;;;;;;9.63;1.92;;;34.80;53.20;;;;;;5018087;28;20046;-80
2022/07/15 11:38:29;;;;;;;5.57;1.60;;;34.60;52.80;;;;;;5018453;28;20090;-81
2022/07/15 11:46:30;;;;;;;4.38;1.58;;;35.60;52.80;;;;;;5013418;28;20400;-81
2022/07/15 11:48:57;;;;;;;6.35;1.60;;;34.90;52.30;;;;;;5011858;28;20030;-81
2022/07/15 11:51:30;;;;;;;2.97;1.38;;;34.60;52.80;;;;;;5017994;28;20045;-81
2022/07/15 11:53:58;;;;;;;5.85;1.70;;;34.00;52.80;;;;;;5014355;28;20038;-81
2022/07/15 11:56:24;;;;;;;2.83;1.50;;;32.60;54.10;;;;;;5011074;28;20034;-82
2022/07/15 11:58:55;;;;;;;10.43;1.95;;;32.00;54.80;;;;;;5008407;28;20034;-83
2022/07/15 12:01:28;;;;;;;2.97;1.67;;;32.90;54.30;;;;;;5013344;28;20042;-83
2022/07/15 12:03:55;;;;;;;7.75;2.20;;;34.20;53.40;;;;;;5016354;28;20082;-81
2022/07/15 12:06:24;;;;;;;6.57;1.80;;;35.10;52.60;;;;;;5016150;28;20035;-82
2022/07/15 12:08:53;;;;;;;5.18;1.90;;;36.20;51.70;;;;;;5016828;28;20065;-82
2022/07/15 12:11:39;;;;;;;5.20;1.70;;;36.80;50.90;;;;;;5017214;28;20086;-81
2022/07/15 12:14:10;;;;;;;8.50;1.60;;;36.60;50.70;;;;;;5017830;28;20042;-82
2022/07/15 12:16:43;;;;;;;4.18;1.73;;;35.90;50.90;;;;;;5017934;28;20023;-81
2022/07/15 12:19:18;;;;;;;3.63;1.58;;;36.40;50.80;;;;;;5017853;28;20022;-81
2022/07/15 12:21:47;;;;;;;3.90;1.50;;;37.30;49.50;;;;;;5017170;28;20030;-81
2022/07/15 12:24:15;;;;;;;5.03;1.63;;;37.40;49.80;;;;;;5014176;28;20034;-81
2022/07/15 12:27:03;;;;;;;4.43;1.80;;;38.20;48.60;;;;;;5011550;28;20050;-81
2022/07/15 12:29:31;;;;;;;7.82;1.75;;;37.80;47.90;;;;;;5007346;28;20101;-82
2022/07/15 12:32:03;;;;;;;9.13;2.30;;;37.10;48.00;;;;;;5012669;28;20022;-82
2022/07/15 12:34:47;;;;;;;4.95;1.70;;;37.00;47.80;;;;;;5030945;28;20113;-80
2022/07/15 12:37:14;;;;;;;;;;;36.90;47.80;;;;;;5017321;28;20030;-81
2022/07/15 12:40:05;;;;;;;4.60;1.58;;;36.90;47.50;;;;;;5017241;28;19898;-80
2022/07/15 12:42:39;;;;;;;5.07;1.90;;;36.50;47.40;;;;;;4977134;28;20046;-81
2022/07/15 12:45:16;;;;;;;3.03;1.70;;;36.40;48.00;;;;;;4996814;28;20104;-81
2022/07/15 12:48:13;;;;;;;5.38;2.08;;;36.10;47.50;;;;;;4997107;28;20046;-81
2022/07/15 12:50:51;;;;;;;5.53;1.90;;;36.80;47.50;;;;;;4993977;28;20054;-81
2022/07/15 12:53:19;;;;;;;2.75;1.45;;;37.30;47.90;;;;;;4996607;28;20101;-83
2022/07/15 12:55:50;;;;;;;2.35;1.33;;;37.60;47.50;;;;;;4996463;28;20026;-80
2022/07/15 12:58:27;;;;;;;2.88;1.65;;;37.90;47.00;;;;;;5006980;28;20026;-82
2022/07/15 13:01:07;;;;;;;2.88;1.58;;;38.30;46.20;;;;;;5017613;28;20035;-82
2022/07/15 13:03:34;;;;;;;6.63;1.65;;;38.20;45.40;;;;;;5019482;28;20038;-81
2022/07/15 13:06:01;;;;;;;4.85;1.80;;;36.60;45.80;;;;;;5020489;28;20033;-80
2022/07/15 13:08:30;;;;;;;7.25;1.73;;;35.60;46.90;;;;;;5020276;28;20085;-82